Time;durP1;ratioP1;P1;durP2;ratioP2;P2;SDS_P1;SDS_P2;PMS_P1;PMS_P2;Temp;Humidity;BMP_temperature;BMP_pressure;BME280_temperature;BME280_humidity;BME280_pressure;Samples;Min_cycle;Max_cycle;Signal;HPM_P1;HPM_P2
2022/05/26 00:54:12;;;;;;;2.95;0.43;;;;;;;13.63;58.86;98038.50;9966754;27;20055;-84
2022/05/26 01:00:10;;;;;;;1.93;0.30;;;;;;;13.59;58.75;98035.44;9981344;29;20038;-85
2022/05/26 01:05:43;;;;;;;1.38;0.50;;;;;;;13.60;58.38;98034.84;9960629;29;20039;-84
2022/05/26 01:11:07;;;;;;;0.93;0.40;;;;;;;13.58;58.29;98031.91;9972346;29;20058;-85
2022/05/26 01:23:03;;;;;;;1.88;0.40;;;;;;;13.57;58.07;98035.34;10347009;24;20038;-84
2022/05/26 01:28:46;;;;;;;1.25;0.30;;;;;;;13.54;57.73;98042.91;10059330;29;20056;-84
2022/05/26 01:40:55;;;;;;;4.82;0.47;;;;;;;13.44;57.75;98045.09;10530191;24;20083;-85
2022/05/26 01:46:22;;;;;;;1.02;0.30;;;;;;;13.41;57.65;98047.03;10072298;29;20079;-85
2022/05/26 01:59:40;;;;;;;0.85;0.30;;;;;;;13.33;57.26;98051.41;11316406;24;20074;-84
2022/05/26 02:05:07;;;;;;;1.30;0.35;;;;;;;13.35;57.10;98043.84;10056626;29;20045;-84
2022/05/26 02:10:32;;;;;;;1.73;0.30;;;;;;;13.35;56.83;98038.25;10056182;29;20042;-84
2022/05/26 02:16:35;;;;;;;2.75;0.40;;;;;;;13.29;56.93;98043.47;10020822;29;20057;-84
2022/05/26 02:22:25;;;;;;;2.85;0.40;;;;;;;13.28;56.75;98035.69;10029807;29;20034;-84
2022/05/26 02:27:52;;;;;;;2.38;0.38;;;;;;;13.23;56.71;98040.31;10055647;29;20049;-85
2022/05/26 03:29:42;;;;;;;0.80;0.30;;;;;;;13.89;54.36;98047.75;10009594;29;20063;-84
2022/05/26 03:40:57;;;;;;;1.58;0.30;;;;;;;14.16;53.25;98053.56;9946277;29;20039;-84
2022/05/26 03:46:42;;;;;;;1.23;0.30;;;;;;;14.18;53.10;98058.56;9993523;29;20051;-84
2022/05/26 03:52:05;;;;;;;1.00;0.20;;;;;;;14.20;52.92;98050.28;10006618;29;20413;-84
2022/05/26 04:22:36;;;;;;;1.58;0.40;;;;;;;15.45;51.85;98056.59;10970594;24;20036;-79
2022/05/26 04:28:04;;;;;;;2.07;0.30;;;;;;;15.51;51.13;98052.63;11388908;24;20020;31
2022/05/26 04:33:46;;;;;;;2.03;0.30;;;;;;;15.52;50.44;98062.53;10221914;24;20111;31
2022/05/26 04:39:08;;;;;;;1.00;0.30;;;;;;;15.43;50.39;98067.72;10867338;24;20065;-78
2022/05/26 04:50:49;;;;;;;1.80;0.40;;;;;;;15.33;49.67;98069.25;10558797;24;20062;-79
2022/05/26 04:56:19;;;;;;;2.55;0.35;;;;;;;15.42;49.57;98071.88;9979152;29;20183;-80
2022/05/26 05:01:47;;;;;;;3.83;0.95;;;;;;;15.68;49.25;98086.66;10026131;29;20047;-80
2022/05/26 05:08:10;;;;;;;0.50;0.30;;;;;;;15.90;48.41;98087.09;10018387;29;20050;-80
2022/05/26 05:13:32;;;;;;;3.53;0.22;;;;;;;16.43;48.58;98086.97;10042054;29;20106;-79
2022/05/26 05:19:21;;;;;;;2.08;0.47;;;;;;;16.94;47.35;98089.47;10002516;29;20066;-80
2022/05/26 05:25:18;;;;;;;3.13;0.40;;;;;;;17.51;46.57;98102.69;9996412;29;20406;-83
2022/05/26 05:30:46;;;;;;;2.60;0.60;;;;;;;18.15;44.53;98087.97;9999050;29;20054;-86
2022/05/26 05:36:09;;;;;;;1.10;0.30;;;;;;;18.79;44.55;98117.53;9974144;29;20083;-91
2022/05/26 05:41:31;;;;;;;0.93;0.30;;;;;;;19.71;42.68;98109.81;9973696;29;20043;-87
2022/05/26 05:46:57;;;;;;;3.33;0.70;;;;;;;19.31;41.48;98121.03;9974507;29;20046;-87
2022/05/26 05:52:19;;;;;;;1.95;0.40;;;;;;;18.88;41.87;98129.91;9932777;29;20054;-86
2022/05/26 05:57:40;;;;;;;3.47;0.30;;;;;;;18.59;41.90;98125.13;9996423;29;20047;-86
2022/05/26 06:03:01;;;;;;;3.08;0.25;;;;;;;18.93;42.27;98134.34;9958296;29;20038;-83
2022/05/26 06:08:21;;;;;;;1.15;0.30;;;;;;;19.35;41.25;98146.66;9958878;29;20058;-81
2022/05/26 06:13:42;;;;;;;1.50;0.30;;;;;;;20.18;41.39;98151.94;9995894;29;20053;-81
2022/05/26 06:19:03;;;;;;;1.67;0.30;;;;;;;22.48;38.69;98145.03;9996069;29;20528;-82
2022/05/26 06:24:25;;;;;;;1.92;0.22;;;;;;;24.33;36.42;98150.84;9995496;29;20442;-82
2022/05/26 06:29:52;;;;;;;1.90;0.30;;;;;;;25.68;32.54;98160.28;9969395;29;20408;-79
2022/05/26 06:46:52;;;;;;;4.60;0.40;;;;;;;26.47;28.91;98174.94;9984717;29;20050;-79
2022/05/26 06:52:14;;;;;;;4.13;0.30;;;;;;;25.34;29.11;98178.34;9931492;29;20043;-79
2022/05/26 06:57:34;;;;;;;2.03;0.30;;;;;;;24.66;30.07;98184.28;9918744;29;20108;-79
2022/05/26 07:02:55;;;;;;;1.35;0.30;;;;;;;23.88;30.10;98175.53;9918632;29;20058;-80
2022/05/26 07:08:17;;;;;;;1.95;0.20;;;;;;;23.18;31.19;98184.59;9931338;29;20071;-80
2022/05/26 07:13:38;;;;;;;1.33;0.20;;;;;;;22.94;32.12;98181.81;9931396;29;20112;-79
2022/05/26 07:18:59;;;;;;;3.70;0.20;;;;;;;23.20;32.25;98181.06;9918447;29;20063;-79
2022/05/26 07:24:20;;;;;;;1.42;0.20;;;;;;;23.83;31.68;98185.38;9918359;29;20047;-79
2022/05/26 07:29:42;;;;;;;0.73;0.20;;;;;;;26.38;30.06;98188.44;9918533;29;20043;-78
2022/05/26 07:35:02;;;;;;;1.65;0.20;;;;;;;27.26;28.12;98186.47;9930605;29;20524;-87
2022/05/26 07:46:03;;;;;;;1.70;0.22;;;;;;;23.90;30.32;98192.69;9953894;29;20054;-88
2022/05/26 07:51:24;;;;;;;1.75;0.20;;;;;;;23.57;30.93;98203.31;9967495;29;20062;-87
2022/05/26 07:56:45;;;;;;;1.60;0.20;;;;;;;22.77;31.64;98197.00;9993179;29;20053;-89
2022/05/26 08:02:06;;;;;;;0.60;0.20;;;;;;;23.02;31.87;98187.72;9993112;29;20746;-89
2022/05/26 08:07:27;;;;;;;2.30;0.20;;;;;;;23.61;31.41;98185.63;9992812;29;20042;-87
2022/05/26 08:12:48;;;;;;;1.85;0.10;;;;;;;24.91;30.86;98188.31;9992574;29;20508;-87
2022/05/26 08:18:08;;;;;;;1.50;0.20;;;;;;;27.20;28.57;98184.25;9980119;29;20459;-86
2022/05/26 08:23:29;;;;;;;1.63;0.10;;;;;;;28.06;26.73;98191.34;9992444;29;20129;-88
2022/05/26 08:28:51;;;;;;;4.90;0.28;;;;;;;28.62;26.30;98200.91;9992642;29;20045;-87
2022/05/26 08:34:11;;;;;;;1.00;0.20;;;;;;;30.79;24.57;98197.13;9999171;29;20114;-89
2022/05/26 08:39:32;;;;;;;1.55;0.20;;;;;;;31.77;23.73;98202.19;9998776;29;20046;-89
2022/05/26 08:44:55;;;;;;;1.67;0.10;;;;;;;39.22;18.97;98207.09;9999101;29;20049;-91
2022/05/26 08:50:19;;;;;;;2.22;0.20;;;;;;;36.36;16.39;98212.44;9960727;29;20078;-90
2022/05/26 08:55:42;;;;;;;1.08;0.22;;;;;;;31.81;19.54;98219.44;9998559;29;20413;-90
2022/05/26 09:01:03;;;;;;;1.48;0.20;;;;;;;32.31;18.94;98212.44;9998407;29;20072;-89
2022/05/26 09:06:25;;;;;;;1.30;0.22;;;;;;;37.97;18.36;98201.56;10010872;29;20537;-90
2022/05/26 09:17:17;;;;;;;1.10;0.20;;;;;;;43.88;11.04;98204.34;10027646;29;20056;-89
2022/05/26 09:22:46;;;;;;;1.40;0.30;;;;;;;41.95;12.70;98206.28;10023547;29;20137;-91
2022/05/26 09:28:09;;;;;;;0.60;0.10;;;;;;;48.34;9.17;98193.44;10023871;29;20084;-93
2022/05/26 09:33:31;;;;;;;0.65;0.15;;;;;;;50.80;7.33;98193.47;10013945;29;20133;-93
2022/05/26 09:39:11;;;;;;;1.73;0.20;;;;;;;51.55;5.77;98179.97;10008265;29;20045;-92
2022/05/26 09:44:55;;;;;;;0.75;0.10;;;;;;;49.49;6.52;98165.50;10002173;29;20046;-93
2022/05/26 09:50:52;;;;;;;1.05;0.10;;;;;;;44.29;8.38;98177.66;10023265;29;20424;-92
2022/05/26 09:56:33;;;;;;;1.05;0.20;;;;;;;37.22;12.01;98179.28;10010254;29;20050;-94
2022/05/26 10:02:09;;;;;;;1.48;0.30;;;;;;;31.83;16.67;98176.13;10010509;29;20049;-94
2022/05/26 10:07:50;;;;;;;2.67;0.30;;;;;;;29.45;19.99;98178.06;9995133;29;20394;-94
2022/05/26 10:13:24;;;;;;;1.15;0.30;;;;;;;27.86;21.58;98174.00;10022493;29;20465;-93
2022/05/26 10:18:55;;;;;;;4.13;0.20;;;;;;;28.02;22.94;98171.25;9997749;29;20081;-85
2022/05/26 10:24:15;;;;;;;3.47;0.20;;;;;;;28.79;23.98;98165.06;10007657;29;20082;-87
2022/05/26 10:29:58;;;;;;;1.95;0.10;;;;;;;39.32;15.36;98162.88;10020947;29;20049;-86
2022/05/26 10:35:29;;;;;;;2.65;0.15;;;;;;;43.17;10.36;98176.19;10024698;29;20037;-86
2022/05/26 10:41:19;;;;;;;1.00;0.10;;;;;;;37.78;12.17;98190.56;10015617;29;20057;-84
2022/05/26 10:46:44;;;;;;;1.20;0.10;;;;;;;31.89;16.87;98184.75;9994988;29;20122;-83
2022/05/26 10:52:10;;;;;;;1.10;0.10;;;;;;;29.51;20.06;98177.34;10022616;29;20062;-84
2022/05/26 10:57:42;;;;;;;1.75;0.10;;;;;;;28.54;21.61;98170.03;10031689;29;20049;-79
2022/05/26 11:03:35;;;;;;;1.58;0.15;;;;;;;27.57;23.82;98170.22;10023510;29;20049;-80
2022/05/26 11:09:16;;;;;;;3.05;0.20;;;;;;;28.51;23.89;98162.84;10034502;29;20046;-79
2022/05/26 11:20:43;;;;;;;0.63;0.10;;;;;;;29.21;22.46;98167.28;10010955;29;20064;-79
2022/05/26 11:26:26;;;;;;;1.20;0.10;;;;;;;27.85;23.27;98184.03;9998065;29;20054;-79
2022/05/26 11:38:27;;;;;;;2.17;0.13;;;;;;;27.94;23.93;98179.78;10008200;29;20068;-79
2022/05/26 11:44:06;;;;;;;1.02;0.20;;;;;;;27.21;25.15;98174.25;10041087;29;20049;-79
2022/05/26 11:49:43;;;;;;;0.70;0.10;;;;;;;27.60;25.26;98163.81;10028841;29;20132;-79
2022/05/26 11:55:09;;;;;;;0.45;0.10;;;;;;;28.08;24.53;98179.84;10034092;29;20037;-78
2022/05/26 12:00:40;;;;;;;0.65;0.10;;;;;;;27.59;24.32;98175.97;10011573;29;20057;-78
2022/05/26 12:06:04;;;;;;;0.32;0.10;;;;;;;27.37;24.52;98177.25;10021122;29;20037;-78
2022/05/26 12:11:53;;;;;;;1.95;0.10;;;;;;;26.28;25.54;98193.28;10031105;29;20404;-78
2022/05/26 12:17:36;;;;;;;0.80;0.10;;;;;;;24.69;27.12;98193.59;10054925;29;20477;-79
2022/05/26 12:23:03;;;;;;;1.63;0.10;;;;;;;24.94;28.33;98189.06;10063011;29;20062;-75
2022/05/26 12:28:31;;;;;;;0.68;0.10;;;;;;;25.79;27.80;98173.34;10063542;29;20046;-77
2022/05/26 12:34:16;;;;;;;0.40;0.10;;;;;;;26.50;27.15;98173.53;9997815;29;20045;-76
2022/05/26 12:40:15;;;;;;;1.15;0.10;;;;;;;26.07;26.83;98169.41;9998900;29;20053;-76
2022/05/26 12:45:52;;;;;;;0.82;0.10;;;;;;;25.99;26.87;98167.16;10023777;29;20064;-76
2022/05/26 12:51:13;;;;;;;1.65;0.10;;;;;;;25.95;27.04;98169.97;9984455;29;20473;-76
2022/05/26 12:56:54;;;;;;;1.95;0.10;;;;;;;25.74;26.82;98171.09;10021822;29;20095;-77
2022/05/26 13:02:15;;;;;;;0.35;0.00;;;;;;;25.20;27.29;98163.84;10008936;29;20049;-78
2022/05/26 13:07:37;;;;;;;0.43;0.10;;;;;;;24.84;27.73;98163.91;9983848;29;20049;-79
2022/05/26 13:12:58;;;;;;;0.30;0.10;;;;;;;25.32;27.35;98172.59;10028470;29;20049;-75
2022/05/26 13:18:20;;;;;;;0.70;0.10;;;;;;;25.18;27.51;98163.06;10032837;29;20050;-76
2022/05/26 13:23:41;;;;;;;1.58;0.10;;;;;;;25.05;27.18;98165.00;10033766;29;20393;-75
2022/05/26 13:29:02;;;;;;;0.28;0.00;;;;;;;24.55;27.76;98169.09;10024226;29;20046;-80
2022/05/26 13:34:23;;;;;;;0.60;0.10;;;;;;;24.48;28.08;98166.81;9997267;29;20077;-80
2022/05/26 13:39:43;;;;;;;0.85;0.10;;;;;;;24.05;28.74;98156.66;10000890;29;20050;-77
2022/05/26 13:45:05;;;;;;;1.75;0.20;;;;;;;23.73;29.60;98162.38;10009428;29;20069;-80
2022/05/26 13:50:31;;;;;;;0.55;0.10;;;;;;;23.82;29.47;98167.56;10010169;29;20090;-82
2022/05/26 13:55:52;;;;;;;1.58;0.10;;;;;;;24.79;29.07;98165.22;10003458;29;20049;-75
2022/05/26 14:01:13;;;;;;;2.60;0.10;;;;;;;24.91;28.56;98170.47;10010610;29;20042;-77
2022/05/26 14:06:34;;;;;;;1.88;0.10;;;;;;;24.31;28.44;98156.44;10041651;29;20073;-74
2022/05/26 14:12:03;;;;;;;1.95;0.10;;;;;;;24.15;28.95;98149.03;10033828;29;20046;-75
2022/05/26 14:17:50;;;;;;;0.65;0.10;;;;;;;24.66;28.82;98155.00;10045613;29;20381;-76
2022/05/26 14:23:22;;;;;;;1.02;0.20;;;;;;;24.82;28.10;98147.47;10034390;29;20046;-77
2022/05/26 14:28:43;;;;;;;1.17;0.05;;;;;;;24.68;28.25;98150.06;10033009;29;20041;-78
2022/05/26 14:34:03;;;;;;;0.85;0.20;;;;;;;24.30;28.29;98149.31;10029048;29;20046;-78
2022/05/26 14:39:24;;;;;;;1.77;0.20;;;;;;;23.99;28.88;98142.97;10058599;29;20457;-83
2022/05/26 14:44:46;;;;;;;0.30;0.10;;;;;;;24.24;28.68;98142.09;9998561;29;20042;-79
2022/05/26 14:50:08;;;;;;;4.25;0.10;;;;;;;24.49;28.65;98142.56;10038297;29;20057;-80
2022/05/26 14:55:31;;;;;;;1.77;0.00;;;;;;;24.57;28.95;98147.72;10044236;29;20053;-79
2022/05/26 15:00:53;;;;;;;0.17;0.08;;;;;;;24.71;28.47;98145.84;10032779;29;20504;-76
2022/05/26 15:06:18;;;;;;;0.93;0.10;;;;;;;24.16;28.67;98141.91;10023839;29;20078;-79
2022/05/26 15:11:40;;;;;;;1.60;0.10;;;;;;;23.70;29.16;98142.38;10022898;29;20041;-77
2022/05/26 15:17:02;;;;;;;0.30;0.10;;;;;;;23.78;29.15;98138.25;10031913;29;20053;-75
2022/05/26 15:22:24;;;;;;;0.80;0.17;;;;;;;23.90;29.13;98139.25;10023862;29;20386;-89
2022/05/26 15:27:45;;;;;;;9.35;0.20;;;;;;;23.84;29.02;98135.56;9993962;29;20046;-83
2022/05/26 15:33:06;;;;;;;0.90;0.10;;;;;;;23.49;29.64;98137.59;9996054;29;20507;-90
2022/05/26 15:38:28;;;;;;;0.10;0.00;;;;;;;23.42;29.84;98133.16;9981057;29;20077;-81
2022/05/26 15:43:48;;;;;;;0.60;0.10;;;;;;;23.09;30.57;98138.09;10001378;29;20050;-86
2022/05/26 15:49:10;;;;;;;0.95;0.10;;;;;;;23.09;30.78;98123.13;10013507;29;20497;-79
2022/05/26 15:54:31;;;;;;;0.80;0.10;;;;;;;23.01;30.70;98117.97;10001172;29;20405;-83
2022/05/26 15:59:52;;;;;;;0.52;0.08;;;;;;;22.71;31.51;98125.72;9995591;29;20045;-88
2022/05/26 16:05:14;;;;;;;1.35;0.10;;;;;;;22.40;31.49;98113.56;9963092;29;20538;-84
2022/05/26 16:10:35;;;;;;;1.85;0.10;;;;;;;22.06;31.65;98109.72;9975995;29;20158;-89
2022/05/26 16:15:56;;;;;;;0.73;0.10;;;;;;;21.73;31.93;98111.63;9987808;29;20054;-81
2022/05/26 16:21:17;;;;;;;1.13;0.10;;;;;;;21.64;32.46;98119.19;9982401;29;20078;-82
2022/05/26 16:26:38;;;;;;;0.63;0.10;;;;;;;21.47;32.37;98105.88;10004112;29;20109;-76
2022/05/26 16:31:59;;;;;;;1.00;0.20;;;;;;;21.42;32.78;98101.47;10011896;29;20046;-75
2022/05/26 16:37:24;;;;;;;0.35;0.08;;;;;;;21.36;33.27;98107.69;10001402;29;20050;-81
2022/05/26 16:42:44;;;;;;;1.73;0.10;;;;;;;21.27;34.23;98133.66;9998202;29;20106;-80
2022/05/26 16:48:06;;;;;;;2.40;0.77;;;;;;;21.06;34.94;98118.78;10016225;29;20053;-76
2022/05/26 16:53:27;;;;;;;2.20;0.50;;;;;;;21.10;34.78;98116.06;10047526;29;20544;-75
2022/05/26 16:58:48;;;;;;;3.47;0.17;;;;;;;21.07;35.08;98105.31;10025850;29;20045;-80
2022/05/26 17:04:10;;;;;;;1.75;0.20;;;;;;;20.99;35.19;98113.56;10010999;29;20129;-78
2022/05/26 17:09:30;;;;;;;2.28;0.17;;;;;;;20.93;35.51;98104.84;10007418;29;20049;-79
2022/05/26 17:26:12;;;;;;;0.80;0.10;;;;;;;20.52;35.98;98123.38;10010756;29;20446;-79
2022/05/26 17:31:34;;;;;;;0.68;0.20;;;;;;;20.22;36.55;98118.06;9979970;29;20046;-78
2022/05/26 17:36:55;;;;;;;0.77;0.20;;;;;;;20.01;37.41;98121.53;9994274;29;20053;-77
2022/05/26 17:42:16;;;;;;;0.50;0.20;;;;;;;19.87;37.65;98121.00;9994435;29;20057;-77
2022/05/26 17:47:37;;;;;;;0.85;0.20;;;;;;;19.82;37.81;98125.09;10006492;29;20080;-78
2022/05/26 17:53:00;;;;;;;0.20;0.10;;;;;;;20.00;38.03;98112.31;9993949;29;20053;-75
2022/05/26 17:58:22;;;;;;;1.13;0.10;;;;;;;20.07;38.12;98121.75;10021956;29;20050;-75
2022/05/26 18:03:43;;;;;;;0.50;0.10;;;;;;;20.04;38.29;98122.34;10018284;29;20401;-75
2022/05/26 18:09:04;;;;;;;1.15;0.20;;;;;;;19.93;38.55;98127.63;9993061;29;20053;-76
2022/05/26 18:14:25;;;;;;;1.10;0.20;;;;;;;19.69;38.76;98124.63;10023789;29;20049;-76
2022/05/26 18:19:47;;;;;;;0.80;0.10;;;;;;;19.51;39.65;98126.75;10017882;29;20033;-78
2022/05/26 18:25:08;;;;;;;0.60;0.10;;;;;;;19.34;39.49;98124.66;10008517;29;20401;-76
2022/05/26 18:30:30;;;;;;;0.40;0.10;;;;;;;19.15;40.07;98126.03;10021417;29;20088;-76
2022/05/26 18:35:51;;;;;;;1.30;0.20;;;;;;;18.95;40.44;98137.25;10033417;29;20063;-76
2022/05/26 18:41:12;;;;;;;1.35;0.10;;;;;;;18.88;40.66;98136.28;9983244;29;20045;-78
2022/05/26 18:46:33;;;;;;;0.90;0.10;;;;;;;18.85;40.70;98134.75;9994072;29;20050;-76
2022/05/26 18:51:54;;;;;;;1.25;0.20;;;;;;;18.69;41.35;98144.66;10004974;29;20132;-78
2022/05/26 18:57:15;;;;;;;0.60;0.17;;;;;;;18.61;41.47;98142.16;10034032;29;20553;-75
2022/05/26 19:02:36;;;;;;;1.23;0.10;;;;;;;18.49;42.01;98141.66;10011490;29;20133;-80
2022/05/26 19:08:18;;;;;;;0.38;0.13;;;;;;;18.40;42.01;98142.69;10016081;29;20668;-79
2022/05/26 19:13:45;;;;;;;1.00;0.10;;;;;;;18.27;42.06;98153.47;10022527;29;20404;-75
2022/05/26 19:19:06;;;;;;;;;;;;;;;18.24;43.04;98154.03;10003221;29;20492;-81
2022/05/26 19:24:27;;;;;;;1.15;0.30;;;;;;;18.34;42.34;98157.28;10011336;29;19924;-85
2022/05/26 19:29:50;;;;;;;2.38;0.10;;;;;;;18.46;42.43;98162.75;9992415;29;20919;-87
2022/05/26 19:35:11;;;;;;;1.40;0.22;;;;;;;18.52;42.46;98165.81;10008357;29;20499;-78
2022/05/26 19:40:36;;;;;;;0.50;0.10;;;;;;;18.60;42.55;98174.66;10025376;29;20046;-83
2022/05/26 19:45:57;;;;;;;1.25;0.20;;;;;;;18.63;42.52;98167.72;9992019;29;20057;-84
2022/05/26 19:51:18;;;;;;;0.82;0.20;;;;;;;18.57;42.35;98168.19;9993645;29;20065;-84
2022/05/26 19:56:39;;;;;;;1.85;0.20;;;;;;;18.52;42.58;98169.38;9993796;29;20098;-84
2022/05/26 20:02:00;;;;;;;5.50;0.40;;;;;;;18.52;42.41;98160.16;9992880;29;20042;-84
2022/05/26 20:07:21;;;;;;;0.60;0.20;;;;;;;18.46;42.60;98165.56;9993038;29;20038;-78
2022/05/26 20:12:42;;;;;;;1.90;0.20;;;;;;;18.41;42.26;98163.91;9992898;29;20409;-79
2022/05/26 20:18:03;;;;;;;0.73;0.20;;;;;;;18.34;42.48;98156.56;9993109;29;20053;-78
2022/05/26 20:23:25;;;;;;;1.98;0.20;;;;;;;18.32;42.34;98165.66;9991908;29;20439;-78
2022/05/26 20:34:27;;;;;;;0.60;0.20;;;;;;;18.30;42.45;98166.31;10027553;29;20042;-79
2022/05/26 20:39:47;;;;;;;1.70;0.20;;;;;;;18.25;42.53;98161.13;10017023;29;20057;-79
2022/05/26 20:45:08;;;;;;;1.33;0.30;;;;;;;18.19;42.59;98164.41;10011438;29;20064;-80
2022/05/26 20:50:29;;;;;;;1.27;0.22;;;;;;;18.10;42.73;98165.41;10015143;29;20581;-79
2022/05/26 20:55:53;;;;;;;0.65;0.10;;;;;;;17.96;42.89;98165.50;10009558;29;20477;-79
2022/05/26 21:01:14;;;;;;;1.95;0.17;;;;;;;17.81;42.97;98173.97;9998655;29;20417;-78
2022/05/26 21:06:35;;;;;;;0.63;0.20;;;;;;;17.62;43.53;98175.19;9997894;29;20056;-78
2022/05/26 21:11:56;;;;;;;1.10;0.20;;;;;;;17.45;43.75;98165.94;10010869;29;20057;-78
2022/05/26 21:17:17;;;;;;;1.48;0.20;;;;;;;17.27;44.30;98167.91;9997896;29;20459;-79
2022/05/26 21:22:38;;;;;;;0.60;0.20;;;;;;;17.14;44.36;98155.31;9997686;29;20108;-78
2022/05/26 21:27:59;;;;;;;2.78;0.30;;;;;;;17.03;44.95;98156.19;9997433;29;20081;-82
2022/05/26 21:33:20;;;;;;;0.70;0.17;;;;;;;16.93;44.91;98154.97;9997086;29;20042;-77
2022/05/26 21:38:41;;;;;;;1.42;0.30;;;;;;;16.80;45.58;98154.38;9996517;29;20050;-77
2022/05/26 21:44:02;;;;;;;1.05;0.20;;;;;;;16.70;45.64;98147.50;9996957;29;20121;-78
2022/05/26 21:49:23;;;;;;;5.45;0.30;;;;;;;16.64;46.34;98150.72;10009995;29;20069;-78
2022/05/26 21:55:15;;;;;;;1.45;0.20;;;;;;;16.63;46.38;98143.63;10007194;29;20058;-78
2022/05/26 22:00:39;;;;;;;1.85;0.30;;;;;;;16.65;46.75;98145.78;10000730;29;20402;-78
2022/05/26 22:11:39;;;;;;;1.23;0.20;;;;;;;16.52;48.04;98142.38;10005455;29;20046;-77
2022/05/26 22:17:00;;;;;;;0.28;0.20;;;;;;;16.49;47.71;98152.06;10003470;29;20049;-77
2022/05/26 22:38:41;;;;;;;1.05;0.35;;;;;;;16.21;49.28;98142.16;9996358;29;20497;-78
2022/05/26 22:52:41;;;;;;;1.70;0.30;;;;;;;16.12;50.22;98120.59;9999238;29;20054;-78
2022/05/26 22:59:05;;;;;;;0.70;0.30;;;;;;;16.10;50.50;98120.47;10010250;29;20061;-78
2022/05/26 23:04:55;;;;;;;2.13;0.20;;;;;;;16.10;50.38;98112.00;10019939;29;20054;-77
2022/05/26 23:10:49;;;;;;;3.28;0.43;;;;;;;16.03;51.11;98113.81;9991697;29;20290;-77
2022/05/26 23:16:14;;;;;;;2.63;0.30;;;;;;;16.00;51.18;98112.94;10015037;29;20046;-78
2022/05/26 23:22:36;;;;;;;1.47;0.30;;;;;;;15.91;51.73;98108.25;9973778;29;20486;-78
2022/05/26 23:28:35;;;;;;;1.10;0.28;;;;;;;15.85;51.63;98104.41;9989957;29;20478;-77
2022/05/26 23:34:26;;;;;;;0.82;0.38;;;;;;;15.85;51.98;98101.59;9991655;29;20058;-77
2022/05/26 23:48:22;;;;;;;3.78;0.30;;;;;;;15.73;52.49;98099.59;9999872;29;20054;-77
2022/05/26 23:54:45;;;;;;;2.50;0.30;;;;;;;15.69;52.89;98088.13;9982000;29;20062;-77
